Altitude, Mississippi
Current Conditions -  °F | °C
As of 6:35 PM on Wednesday 26 Nov 2014 (Local Time) from KCRX Reporting Station
Clear Clear  
Wind Chill: 39°   Ceiling: Unl
Heat Index: 45°   Visibility: 10mi
Dew Point: 34°   Wind: 10mph
Humidity: 66%   Direction: 280°W
Pressure: 30.09"   Gusts: NA
Location:  34.6741°N, 88.5234°W
Report Text: KCRX 270035Z AUTO 28009KT 10SM CLR 07/01 A3009 RMK AO2
Loading
Personal Weather Stations






























Interactive Weather Map New forecast layout! Learn more

10-Day Weather Forecast

Advertisements
Track Severe Weather on mobile